sensor_id;sensor_type;location;lat;lon;timestamp;P1;durP1;ratioP1;P2;durP2;ratioP2
64936;SDS011;51452;47.698;19.050;2023-11-18T00:00:45;7.20;;;4.87;;
64936;SDS011;51452;47.698;19.050;2023-11-18T00:03:10;7.33;;;4.93;;
64936;SDS011;51452;47.698;19.050;2023-11-18T00:05:36;5.73;;;4.20;;
64936;SDS011;51452;47.698;19.050;2023-11-18T00:08:01;6.97;;;4.27;;
64936;SDS011;51452;47.698;19.050;2023-11-18T00:10:26;5.93;;;4.30;;
64936;SDS011;51452;47.698;19.050;2023-11-18T00:12:52;6.17;;;4.13;;
64936;SDS011;51452;47.698;19.050;2023-11-18T00:15:18;7.17;;;4.30;;
64936;SDS011;51452;47.698;19.050;2023-11-18T00:17:45;5.70;;;4.40;;
64936;SDS011;51452;47.698;19.050;2023-11-18T00:20:10;5.60;;;3.80;;
64936;SDS011;51452;47.698;19.050;2023-11-18T00:22:37;6.00;;;4.30;;
64936;SDS011;51452;47.698;19.050;2023-11-18T00:25:03;6.63;;;4.33;;
64936;SDS011;51452;47.698;19.050;2023-11-18T00:27:35;6.33;;;4.23;;
64936;SDS011;51452;47.698;19.050;2023-11-18T00:30:02;5.13;;;3.90;;
64936;SDS011;51452;47.698;19.050;2023-11-18T00:32:30;6.00;;;4.50;;
64936;SDS011;51452;47.698;19.050;2023-11-18T00:34:56;8.07;;;4.20;;
64936;SDS011;51452;47.698;19.050;2023-11-18T00:37:22;6.63;;;4.00;;
64936;SDS011;51452;47.698;19.050;2023-11-18T00:39:47;4.80;;;3.77;;
64936;SDS011;51452;47.698;19.050;2023-11-18T00:42:13;7.13;;;3.83;;
64936;SDS011;51452;47.698;19.050;2023-11-18T00:44:38;5.40;;;3.60;;
64936;SDS011;51452;47.698;19.050;2023-11-18T00:47:03;4.57;;;3.50;;
64936;SDS011;51452;47.698;19.050;2023-11-18T00:49:29;5.83;;;3.93;;
64936;SDS011;51452;47.698;19.050;2023-11-18T00:51:55;4.83;;;3.83;;
64936;SDS011;51452;47.698;19.050;2023-11-18T00:54:20;5.23;;;3.67;;
64936;SDS011;51452;47.698;19.050;2023-11-18T00:56:45;5.60;;;3.77;;
64936;SDS011;51452;47.698;19.050;2023-11-18T00:59:11;6.60;;;3.80;;
64936;SDS011;51452;47.698;19.050;2023-11-18T01:01:36;6.17;;;3.73;;
64936;SDS011;51452;47.698;19.050;2023-11-18T01:04:02;5.97;;;3.80;;
64936;SDS011;51452;47.698;19.050;2023-11-18T01:06:28;6.43;;;3.77;;
64936;SDS011;51452;47.698;19.050;2023-11-18T01:08:53;5.13;;;3.83;;
64936;SDS011;51452;47.698;19.050;2023-11-18T01:11:19;5.73;;;3.70;;
64936;SDS011;51452;47.698;19.050;2023-11-18T01:13:45;5.53;;;3.33;;
64936;SDS011;51452;47.698;19.050;2023-11-18T01:16:11;4.83;;;3.57;;
64936;SDS011;51452;47.698;19.050;2023-11-18T01:18:36;4.10;;;3.30;;
64936;SDS011;51452;47.698;19.050;2023-11-18T01:21:02;4.70;;;3.13;;
64936;SDS011;51452;47.698;19.050;2023-11-18T01:23:27;5.17;;;3.80;;
64936;SDS011;51452;47.698;19.050;2023-11-18T01:25:53;5.47;;;3.43;;
64936;SDS011;51452;47.698;19.050;2023-11-18T01:28:18;4.83;;;3.60;;
64936;SDS011;51452;47.698;19.050;2023-11-18T01:30:43;7.57;;;3.97;;
64936;SDS011;51452;47.698;19.050;2023-11-18T01:33:10;6.57;;;3.43;;
64936;SDS011;51452;47.698;19.050;2023-11-18T01:35:35;5.50;;;3.60;;
64936;SDS011;51452;47.698;19.050;2023-11-18T01:38:01;4.33;;;3.57;;
64936;SDS011;51452;47.698;19.050;2023-11-18T01:40:26;6.77;;;4.20;;
64936;SDS011;51452;47.698;19.050;2023-11-18T01:42:55;7.70;;;4.03;;
64936;SDS011;51452;47.698;19.050;2023-11-18T01:45:21;5.27;;;3.80;;
64936;SDS011;51452;47.698;19.050;2023-11-18T01:47:46;5.50;;;3.93;;
64936;SDS011;51452;47.698;19.050;2023-11-18T01:50:13;5.23;;;3.70;;
64936;SDS011;51452;47.698;19.050;2023-11-18T01:52:39;4.93;;;3.70;;
64936;SDS011;51452;47.698;19.050;2023-11-18T01:55:06;4.37;;;3.33;;
64936;SDS011;51452;47.698;19.050;2023-11-18T01:57:32;5.30;;;3.87;;
64936;SDS011;51452;47.698;19.050;2023-11-18T01:59:58;4.93;;;3.80;;
64936;SDS011;51452;47.698;19.050;2023-11-18T02:02:25;6.07;;;3.73;;
64936;SDS011;51452;47.698;19.050;2023-11-18T02:04:51;5.00;;;3.60;;
64936;SDS011;51452;47.698;19.050;2023-11-18T02:07:16;5.17;;;4.27;;
64936;SDS011;51452;47.698;19.050;2023-11-18T02:09:43;5.83;;;3.70;;
64936;SDS011;51452;47.698;19.050;2023-11-18T02:12:21;4.00;;;3.53;;
64936;SDS011;51452;47.698;19.050;2023-11-18T02:15:06;5.20;;;3.77;;
64936;SDS011;51452;47.698;19.050;2023-11-18T02:17:35;4.63;;;3.87;;
64936;SDS011;51452;47.698;19.050;2023-11-18T02:20:03;5.03;;;3.53;;
64936;SDS011;51452;47.698;19.050;2023-11-18T02:22:35;8.83;;;3.97;;
64936;SDS011;51452;47.698;19.050;2023-11-18T02:25:01;5.30;;;3.80;;
64936;SDS011;51452;47.698;19.050;2023-11-18T02:27:31;7.63;;;3.53;;
64936;SDS011;51452;47.698;19.050;2023-11-18T02:29:56;5.30;;;3.67;;
64936;SDS011;51452;47.698;19.050;2023-11-18T02:32:28;4.60;;;3.37;;
64936;SDS011;51452;47.698;19.050;2023-11-18T02:35:10;5.15;;;3.70;;
64936;SDS011;51452;47.698;19.050;2023-11-18T02:37:43;4.53;;;3.37;;
64936;SDS011;51452;47.698;19.050;2023-11-18T02:40:12;4.37;;;3.53;;
64936;SDS011;51452;47.698;19.050;2023-11-18T02:42:44;4.87;;;3.13;;
64936;SDS011;51452;47.698;19.050;2023-11-18T02:45:13;4.90;;;3.60;;
64936;SDS011;51452;47.698;19.050;2023-11-18T02:47:45;5.03;;;3.50;;
64936;SDS011;51452;47.698;19.050;2023-11-18T02:50:11;4.93;;;3.10;;
64936;SDS011;51452;47.698;19.050;2023-11-18T02:52:37;4.57;;;3.50;;
64936;SDS011;51452;47.698;19.050;2023-11-18T02:55:04;4.13;;;3.20;;
64936;SDS011;51452;47.698;19.050;2023-11-18T02:57:31;4.37;;;3.20;;
64936;SDS011;51452;47.698;19.050;2023-11-18T02:59:57;6.40;;;3.93;;
64936;SDS011;51452;47.698;19.050;2023-11-18T03:02:25;5.17;;;3.47;;
64936;SDS011;51452;47.698;19.050;2023-11-18T03:04:56;7.10;;;3.57;;
64936;SDS011;51452;47.698;19.050;2023-11-18T03:07:22;4.00;;;2.90;;
64936;SDS011;51452;47.698;19.050;2023-11-18T03:09:47;5.00;;;3.40;;
64936;SDS011;51452;47.698;19.050;2023-11-18T03:12:13;4.83;;;3.43;;
64936;SDS011;51452;47.698;19.050;2023-11-18T03:14:38;4.37;;;3.40;;
64936;SDS011;51452;47.698;19.050;2023-11-18T03:17:04;4.40;;;3.13;;
64936;SDS011;51452;47.698;19.050;2023-11-18T03:19:32;6.90;;;3.70;;
64936;SDS011;51452;47.698;19.050;2023-11-18T03:21:59;4.20;;;3.20;;
64936;SDS011;51452;47.698;19.050;2023-11-18T03:24:27;4.60;;;3.37;;
64936;SDS011;51452;47.698;19.050;2023-11-18T03:26:56;4.93;;;3.47;;
64936;SDS011;51452;47.698;19.050;2023-11-18T03:29:21;5.73;;;4.00;;
64936;SDS011;51452;47.698;19.050;2023-11-18T03:31:47;6.63;;;4.07;;
64936;SDS011;51452;47.698;19.050;2023-11-18T03:34:17;4.80;;;3.60;;
64936;SDS011;51452;47.698;19.050;2023-11-18T03:36:45;4.80;;;3.30;;
64936;SDS011;51452;47.698;19.050;2023-11-18T03:39:14;3.73;;;3.07;;
64936;SDS011;51452;47.698;19.050;2023-11-18T03:41:41;4.13;;;3.20;;
64936;SDS011;51452;47.698;19.050;2023-11-18T03:44:10;4.53;;;3.40;;
64936;SDS011;51452;47.698;19.050;2023-11-18T03:46:36;4.33;;;3.37;;
64936;SDS011;51452;47.698;19.050;2023-11-18T03:49:02;5.27;;;3.60;;
64936;SDS011;51452;47.698;19.050;2023-11-18T03:51:28;4.63;;;3.23;;
64936;SDS011;51452;47.698;19.050;2023-11-18T03:53:54;4.77;;;3.33;;
64936;SDS011;51452;47.698;19.050;2023-11-18T03:56:19;4.17;;;3.43;;
64936;SDS011;51452;47.698;19.050;2023-11-18T03:58:45;4.43;;;3.20;;
64936;SDS011;51452;47.698;19.050;2023-11-18T04:01:23;4.40;;;3.33;;
64936;SDS011;51452;47.698;19.050;2023-11-18T04:03:51;3.83;;;3.00;;
64936;SDS011;51452;47.698;19.050;2023-11-18T04:06:17;4.60;;;3.30;;
64936;SDS011;51452;47.698;19.050;2023-11-18T04:08:45;4.77;;;3.20;;
64936;SDS011;51452;47.698;19.050;2023-11-18T04:11:12;4.97;;;3.40;;
64936;SDS011;51452;47.698;19.050;2023-11-18T04:13:39;6.07;;;3.83;;
64936;SDS011;51452;47.698;19.050;2023-11-18T04:16:11;4.97;;;3.63;;
64936;SDS011;51452;47.698;19.050;2023-11-18T04:18:42;4.05;;;3.28;;
64936;SDS011;51452;47.698;19.050;2023-11-18T04:21:09;5.40;;;3.43;;
64936;SDS011;51452;47.698;19.050;2023-11-18T04:23:38;5.13;;;3.27;;
64936;SDS011;51452;47.698;19.050;2023-11-18T04:26:08;5.30;;;3.23;;
64936;SDS011;51452;47.698;19.050;2023-11-18T04:28:34;4.47;;;3.50;;
64936;SDS011;51452;47.698;19.050;2023-11-18T04:31:00;5.17;;;3.37;;
64936;SDS011;51452;47.698;19.050;2023-11-18T04:33:30;5.47;;;3.37;;
64936;SDS011;51452;47.698;19.050;2023-11-18T04:35:56;6.07;;;3.50;;
64936;SDS011;51452;47.698;19.050;2023-11-18T04:38:22;3.77;;;3.07;;
64936;SDS011;51452;47.698;19.050;2023-11-18T04:40:48;4.67;;;3.50;;
64936;SDS011;51452;47.698;19.050;2023-11-18T04:43:13;5.40;;;3.27;;
64936;SDS011;51452;47.698;19.050;2023-11-18T04:45:40;4.43;;;2.80;;
64936;SDS011;51452;47.698;19.050;2023-11-18T04:48:07;5.97;;;3.47;;
64936;SDS011;51452;47.698;19.050;2023-11-18T04:50:33;4.47;;;3.23;;
64936;SDS011;51452;47.698;19.050;2023-11-18T04:52:58;4.73;;;3.20;;
64936;SDS011;51452;47.698;19.050;2023-11-18T04:55:24;4.37;;;3.10;;
64936;SDS011;51452;47.698;19.050;2023-11-18T04:57:53;3.97;;;3.07;;
64936;SDS011;51452;47.698;19.050;2023-11-18T05:00:18;4.70;;;3.33;;
64936;SDS011;51452;47.698;19.050;2023-11-18T05:02:44;3.77;;;3.10;;
64936;SDS011;51452;47.698;19.050;2023-11-18T05:05:12;4.13;;;3.20;;
64936;SDS011;51452;47.698;19.050;2023-11-18T05:07:41;4.70;;;3.40;;
64936;SDS011;51452;47.698;19.050;2023-11-18T05:10:07;4.47;;;3.40;;
64936;SDS011;51452;47.698;19.050;2023-11-18T05:12:33;5.23;;;3.60;;
64936;SDS011;51452;47.698;19.050;2023-11-18T05:14:59;4.97;;;3.60;;
64936;SDS011;51452;47.698;19.050;2023-11-18T05:17:25;3.83;;;2.97;;
64936;SDS011;51452;47.698;19.050;2023-11-18T05:19:51;4.67;;;3.30;;
64936;SDS011;51452;47.698;19.050;2023-11-18T05:22:17;5.67;;;3.10;;
64936;SDS011;51452;47.698;19.050;2023-11-18T05:24:43;3.77;;;2.90;;
64936;SDS011;51452;47.698;19.050;2023-11-18T05:27:09;4.00;;;2.80;;
64936;SDS011;51452;47.698;19.050;2023-11-18T05:29:34;4.33;;;3.10;;
64936;SDS011;51452;47.698;19.050;2023-11-18T05:31:59;4.67;;;3.40;;
64936;SDS011;51452;47.698;19.050;2023-11-18T05:34:25;4.07;;;3.10;;
64936;SDS011;51452;47.698;19.050;2023-11-18T05:36:50;3.90;;;3.00;;
64936;SDS011;51452;47.698;19.050;2023-11-18T05:39:22;4.27;;;3.47;;
64936;SDS011;51452;47.698;19.050;2023-11-18T05:41:53;3.60;;;2.67;;
64936;SDS011;51452;47.698;19.050;2023-11-18T05:44:21;4.67;;;3.20;;
64936;SDS011;51452;47.698;19.050;2023-11-18T05:46:55;4.32;;;2.92;;
64936;SDS011;51452;47.698;19.050;2023-11-18T05:49:23;4.97;;;3.23;;
64936;SDS011;51452;47.698;19.050;2023-11-18T05:51:49;3.97;;;3.00;;
64936;SDS011;51452;47.698;19.050;2023-11-18T05:54:15;6.70;;;3.13;;
64936;SDS011;51452;47.698;19.050;2023-11-18T05:56:40;3.83;;;2.80;;
64936;SDS011;51452;47.698;19.050;2023-11-18T05:59:06;4.13;;;2.77;;
64936;SDS011;51452;47.698;19.050;2023-11-18T06:01:33;3.20;;;2.30;;
64936;SDS011;51452;47.698;19.050;2023-11-18T06:03:59;4.17;;;3.10;;
64936;SDS011;51452;47.698;19.050;2023-11-18T06:06:26;4.33;;;2.87;;
64936;SDS011;51452;47.698;19.050;2023-11-18T06:08:51;4.53;;;2.80;;
64936;SDS011;51452;47.698;19.050;2023-11-18T06:11:18;3.40;;;2.70;;
64936;SDS011;51452;47.698;19.050;2023-11-18T06:16:17;2.60;;;2.20;;
64936;SDS011;51452;47.698;19.050;2023-11-18T06:18:48;3.30;;;2.47;;
64936;SDS011;51452;47.698;19.050;2023-11-18T06:21:18;3.70;;;2.60;;
64936;SDS011;51452;47.698;19.050;2023-11-18T06:23:45;4.13;;;2.60;;
64936;SDS011;51452;47.698;19.050;2023-11-18T06:26:12;3.50;;;2.37;;
64936;SDS011;51452;47.698;19.050;2023-11-18T06:28:39;3.17;;;2.30;;
64936;SDS011;51452;47.698;19.050;2023-11-18T06:31:05;3.83;;;2.70;;
64936;SDS011;51452;47.698;19.050;2023-11-18T06:33:36;5.50;;;2.53;;
64936;SDS011;51452;47.698;19.050;2023-11-18T06:36:02;5.40;;;2.30;;
64936;SDS011;51452;47.698;19.050;2023-11-18T06:38:29;2.97;;;2.27;;
64936;SDS011;51452;47.698;19.050;2023-11-18T06:40:55;3.77;;;2.13;;
64936;SDS011;51452;47.698;19.050;2023-11-18T06:43:23;3.57;;;2.13;;
64936;SDS011;51452;47.698;19.050;2023-11-18T06:45:49;3.23;;;1.90;;
64936;SDS011;51452;47.698;19.050;2023-11-18T06:48:15;3.00;;;2.27;;
64936;SDS011;51452;47.698;19.050;2023-11-18T06:50:45;5.53;;;2.27;;
64936;SDS011;51452;47.698;19.050;2023-11-18T06:53:10;3.17;;;1.90;;
64936;SDS011;51452;47.698;19.050;2023-11-18T06:55:36;5.17;;;2.20;;
64936;SDS011;51452;47.698;19.050;2023-11-18T06:58:02;3.40;;;2.17;;
64936;SDS011;51452;47.698;19.050;2023-11-18T07:00:27;2.30;;;1.90;;
64936;SDS011;51452;47.698;19.050;2023-11-18T07:02:54;4.27;;;2.10;;
64936;SDS011;51452;47.698;19.050;2023-11-18T07:05:20;2.90;;;1.93;;
64936;SDS011;51452;47.698;19.050;2023-11-18T07:07:49;2.30;;;1.83;;
64936;SDS011;51452;47.698;19.050;2023-11-18T07:10:14;3.47;;;2.20;;
64936;SDS011;51452;47.698;19.050;2023-11-18T07:12:43;2.87;;;2.07;;
64936;SDS011;51452;47.698;19.050;2023-11-18T07:15:09;3.17;;;1.70;;
64936;SDS011;51452;47.698;19.050;2023-11-18T07:17:35;3.50;;;2.30;;
64936;SDS011;51452;47.698;19.050;2023-11-18T07:20:01;5.70;;;2.00;;
64936;SDS011;51452;47.698;19.050;2023-11-18T07:22:27;3.50;;;2.13;;
64936;SDS011;51452;47.698;19.050;2023-11-18T07:24:52;2.93;;;2.10;;
64936;SDS011;51452;47.698;19.050;2023-11-18T07:27:18;2.83;;;1.70;;
64936;SDS011;51452;47.698;19.050;2023-11-18T07:29:43;3.13;;;1.90;;
64936;SDS011;51452;47.698;19.050;2023-11-18T07:32:10;2.43;;;1.60;;
64936;SDS011;51452;47.698;19.050;2023-11-18T07:34:36;3.30;;;2.07;;
64936;SDS011;51452;47.698;19.050;2023-11-18T07:37:03;3.10;;;1.87;;
64936;SDS011;51452;47.698;19.050;2023-11-18T07:39:28;2.37;;;1.80;;
64936;SDS011;51452;47.698;19.050;2023-11-18T07:42:09;2.67;;;1.90;;
64936;SDS011;51452;47.698;19.050;2023-11-18T07:44:36;2.50;;;1.83;;
64936;SDS011;51452;47.698;19.050;2023-11-18T07:47:05;2.53;;;1.70;;
64936;SDS011;51452;47.698;19.050;2023-11-18T07:49:31;2.40;;;1.77;;
64936;SDS011;51452;47.698;19.050;2023-11-18T07:51:56;2.70;;;1.90;;
64936;SDS011;51452;47.698;19.050;2023-11-18T07:54:22;3.50;;;2.10;;
64936;SDS011;51452;47.698;19.050;2023-11-18T07:56:50;2.60;;;2.00;;
64936;SDS011;51452;47.698;19.050;2023-11-18T07:59:18;2.50;;;1.80;;
64936;SDS011;51452;47.698;19.050;2023-11-18T08:01:44;2.70;;;1.80;;
64936;SDS011;51452;47.698;19.050;2023-11-18T08:04:11;2.30;;;1.90;;
64936;SDS011;51452;47.698;19.050;2023-11-18T08:06:40;2.87;;;1.83;;
64936;SDS011;51452;47.698;19.050;2023-11-18T08:09:05;2.10;;;1.87;;
64936;SDS011;51452;47.698;19.050;2023-11-18T08:11:39;2.60;;;1.73;;
64936;SDS011;51452;47.698;19.050;2023-11-18T08:14:09;2.97;;;1.83;;
64936;SDS011;51452;47.698;19.050;2023-11-18T08:16:34;3.77;;;1.40;;
64936;SDS011;51452;47.698;19.050;2023-11-18T08:19:01;2.30;;;1.60;;
64936;SDS011;51452;47.698;19.050;2023-11-18T08:21:33;2.30;;;1.70;;
64936;SDS011;51452;47.698;19.050;2023-11-18T08:23:58;1.80;;;1.40;;
64936;SDS011;51452;47.698;19.050;2023-11-18T08:26:25;2.63;;;1.70;;
64936;SDS011;51452;47.698;19.050;2023-11-18T08:28:50;2.00;;;1.60;;
64936;SDS011;51452;47.698;19.050;2023-11-18T08:31:16;2.83;;;1.50;;
64936;SDS011;51452;47.698;19.050;2023-11-18T08:33:42;2.13;;;1.70;;
64936;SDS011;51452;47.698;19.050;2023-11-18T08:36:08;2.10;;;1.60;;
64936;SDS011;51452;47.698;19.050;2023-11-18T08:38:34;3.43;;;1.63;;
64936;SDS011;51452;47.698;19.050;2023-11-18T08:41:00;2.17;;;1.57;;
64936;SDS011;51452;47.698;19.050;2023-11-18T08:43:25;3.70;;;1.97;;
64936;SDS011;51452;47.698;19.050;2023-11-18T08:45:53;2.77;;;1.60;;
64936;SDS011;51452;47.698;19.050;2023-11-18T08:48:21;2.07;;;1.50;;
64936;SDS011;51452;47.698;19.050;2023-11-18T08:50:47;2.43;;;1.50;;
64936;SDS011;51452;47.698;19.050;2023-11-18T08:53:13;2.10;;;1.43;;
64936;SDS011;51452;47.698;19.050;2023-11-18T08:55:42;2.33;;;1.50;;
64936;SDS011;51452;47.698;19.050;2023-11-18T08:58:19;3.50;;;2.07;;
64936;SDS011;51452;47.698;19.050;2023-11-18T09:00:48;3.53;;;1.57;;
64936;SDS011;51452;47.698;19.050;2023-11-18T09:03:19;3.03;;;1.83;;
64936;SDS011;51452;47.698;19.050;2023-11-18T09:05:53;8.50;;;1.93;;
64936;SDS011;51452;47.698;19.050;2023-11-18T09:10:57;2.90;;;1.77;;
64936;SDS011;51452;47.698;19.050;2023-11-18T09:13:23;1.87;;;1.50;;
64936;SDS011;51452;47.698;19.050;2023-11-18T09:15:54;2.20;;;1.50;;
64936;SDS011;51452;47.698;19.050;2023-11-18T09:18:25;2.30;;;1.40;;
64936;SDS011;51452;47.698;19.050;2023-11-18T09:20:55;2.60;;;1.70;;
64936;SDS011;51452;47.698;19.050;2023-11-18T09:23:23;1.90;;;1.60;;
64936;SDS011;51452;47.698;19.050;2023-11-18T09:25:50;2.90;;;1.53;;
64936;SDS011;51452;47.698;19.050;2023-11-18T09:28:18;2.03;;;1.57;;
64936;SDS011;51452;47.698;19.050;2023-11-18T09:30:49;4.03;;;1.50;;
64936;SDS011;51452;47.698;19.050;2023-11-18T09:33:19;5.27;;;1.40;;
64936;SDS011;51452;47.698;19.050;2023-11-18T09:35:58;2.30;;;1.60;;
64936;SDS011;51452;47.698;19.050;2023-11-18T09:38:30;2.07;;;1.40;;
64936;SDS011;51452;47.698;19.050;2023-11-18T09:40:58;2.70;;;1.67;;
64936;SDS011;51452;47.698;19.050;2023-11-18T09:43:28;2.20;;;1.53;;
64936;SDS011;51452;47.698;19.050;2023-11-18T09:46:06;2.50;;;1.50;;
64936;SDS011;51452;47.698;19.050;2023-11-18T09:48:48;2.40;;;1.40;;
64936;SDS011;51452;47.698;19.050;2023-11-18T09:51:21;2.40;;;1.50;;
64936;SDS011;51452;47.698;19.050;2023-11-18T09:53:51;2.20;;;1.50;;
64936;SDS011;51452;47.698;19.050;2023-11-18T09:56:29;1.73;;;1.40;;
64936;SDS011;51452;47.698;19.050;2023-11-18T09:59:11;3.17;;;1.40;;
64936;SDS011;51452;47.698;19.050;2023-11-18T10:02:12;2.43;;;1.57;;
64936;SDS011;51452;47.698;19.050;2023-11-18T10:04:39;4.03;;;1.40;;
64936;SDS011;51452;47.698;19.050;2023-11-18T10:07:08;1.40;;;1.17;;
64936;SDS011;51452;47.698;19.050;2023-11-18T10:09:35;2.27;;;1.50;;
64936;SDS011;51452;47.698;19.050;2023-11-18T10:12:04;2.53;;;1.30;;
64936;SDS011;51452;47.698;19.050;2023-11-18T10:14:34;2.00;;;1.53;;
64936;SDS011;51452;47.698;19.050;2023-11-18T10:17:03;2.07;;;1.40;;
64936;SDS011;51452;47.698;19.050;2023-11-18T10:19:51;1.63;;;1.13;;
64936;SDS011;51452;47.698;19.050;2023-11-18T10:24:51;3.83;;;1.30;;
64936;SDS011;51452;47.698;19.050;2023-11-18T10:27:20;2.37;;;1.20;;
64936;SDS011;51452;47.698;19.050;2023-11-18T10:29:48;2.13;;;1.20;;
64936;SDS011;51452;47.698;19.050;2023-11-18T10:32:13;1.47;;;1.20;;
64936;SDS011;51452;47.698;19.050;2023-11-18T10:34:45;1.30;;;1.00;;
64936;SDS011;51452;47.698;19.050;2023-11-18T10:37:10;4.17;;;1.20;;
64936;SDS011;51452;47.698;19.050;2023-11-18T10:39:36;1.50;;;1.10;;
64936;SDS011;51452;47.698;19.050;2023-11-18T10:42:02;1.97;;;1.10;;
64936;SDS011;51452;47.698;19.050;2023-11-18T10:44:28;1.43;;;1.13;;
64936;SDS011;51452;47.698;19.050;2023-11-18T10:46:56;1.83;;;1.20;;
64936;SDS011;51452;47.698;19.050;2023-11-18T10:49:23;2.40;;;1.63;;
64936;SDS011;51452;47.698;19.050;2023-11-18T10:52:02;1.83;;;1.20;;
64936;SDS011;51452;47.698;19.050;2023-11-18T10:54:32;1.60;;;1.13;;
64936;SDS011;51452;47.698;19.050;2023-11-18T10:56:57;3.40;;;1.10;;
64936;SDS011;51452;47.698;19.050;2023-11-18T10:59:32;2.53;;;1.33;;
64936;SDS011;51452;47.698;19.050;2023-11-18T11:01:58;2.07;;;1.30;;
64936;SDS011;51452;47.698;19.050;2023-11-18T11:04:23;1.77;;;1.20;;
64936;SDS011;51452;47.698;19.050;2023-11-18T11:06:49;1.80;;;1.20;;
64936;SDS011;51452;47.698;19.050;2023-11-18T11:09:22;1.53;;;1.10;;
64936;SDS011;51452;47.698;19.050;2023-11-18T11:11:56;6.68;;;1.50;;
64936;SDS011;51452;47.698;19.050;2023-11-18T11:14:30;1.80;;;1.20;;
64936;SDS011;51452;47.698;19.050;2023-11-18T11:17:06;2.13;;;1.00;;
64936;SDS011;51452;47.698;19.050;2023-11-18T11:22:46;4.10;;;1.43;;
64936;SDS011;51452;47.698;19.050;2023-11-18T11:25:24;1.77;;;1.07;;
64936;SDS011;51452;47.698;19.050;2023-11-18T11:28:10;1.37;;;1.10;;
64936;SDS011;51452;47.698;19.050;2023-11-18T11:31:03;2.03;;;1.10;;
64936;SDS011;51452;47.698;19.050;2023-11-18T11:33:30;1.50;;;1.13;;
64936;SDS011;51452;47.698;19.050;2023-11-18T11:36:05;1.30;;;1.07;;
64936;SDS011;51452;47.698;19.050;2023-11-18T11:38:37;2.27;;;1.00;;
64936;SDS011;51452;47.698;19.050;2023-11-18T11:41:06;1.13;;;0.73;;
64936;SDS011;51452;47.698;19.050;2023-11-18T11:43:34;1.87;;;1.10;;
64936;SDS011;51452;47.698;19.050;2023-11-18T11:46:00;1.40;;;0.90;;
64936;SDS011;51452;47.698;19.050;2023-11-18T11:48:38;1.60;;;1.00;;
64936;SDS011;51452;47.698;19.050;2023-11-18T11:51:28;1.20;;;0.90;;
64936;SDS011;51452;47.698;19.050;2023-11-18T11:54:04;1.73;;;1.10;;
64936;SDS011;51452;47.698;19.050;2023-11-18T11:56:43;2.13;;;1.00;;
64936;SDS011;51452;47.698;19.050;2023-11-18T11:59:15;1.27;;;0.90;;
64936;SDS011;51452;47.698;19.050;2023-11-18T12:01:41;1.90;;;1.00;;
64936;SDS011;51452;47.698;19.050;2023-11-18T12:04:11;2.60;;;1.00;;
64936;SDS011;51452;47.698;19.050;2023-11-18T12:06:46;2.50;;;1.10;;
64936;SDS011;51452;47.698;19.050;2023-11-18T12:09:16;2.07;;;1.00;;
64936;SDS011;51452;47.698;19.050;2023-11-18T12:11:45;1.40;;;1.00;;
64936;SDS011;51452;47.698;19.050;2023-11-18T12:14:18;1.27;;;0.88;;
64936;SDS011;51452;47.698;19.050;2023-11-18T12:19:46;1.30;;;0.90;;
64936;SDS011;51452;47.698;19.050;2023-11-18T12:22:13;1.60;;;0.73;;
64936;SDS011;51452;47.698;19.050;2023-11-18T12:30:04;1.20;;;0.90;;
64936;SDS011;51452;47.698;19.050;2023-11-18T12:32:57;1.90;;;0.80;;
64936;SDS011;51452;47.698;19.050;2023-11-18T12:35:31;0.80;;;0.60;;
64936;SDS011;51452;47.698;19.050;2023-11-18T12:43:52;2.75;;;0.85;;
64936;SDS011;51452;47.698;19.050;2023-11-18T12:49:18;1.23;;;0.70;;
64936;SDS011;51452;47.698;19.050;2023-11-18T12:51:49;2.43;;;0.83;;
64936;SDS011;51452;47.698;19.050;2023-11-18T12:54:18;1.60;;;0.90;;
64936;SDS011;51452;47.698;19.050;2023-11-18T12:56:45;1.10;;;0.70;;
64936;SDS011;51452;47.698;19.050;2023-11-18T12:59:18;1.73;;;1.00;;
64936;SDS011;51452;47.698;19.050;2023-11-18T13:01:47;1.20;;;0.80;;
64936;SDS011;51452;47.698;19.050;2023-11-18T13:04:21;1.38;;;1.02;;
64936;SDS011;51452;47.698;19.050;2023-11-18T13:06:52;1.83;;;0.80;;
64936;SDS011;51452;47.698;19.050;2023-11-18T13:09:18;2.30;;;0.83;;
64936;SDS011;51452;47.698;19.050;2023-11-18T13:11:57;1.03;;;0.80;;
64936;SDS011;51452;47.698;19.050;2023-11-18T13:14:25;1.27;;;0.87;;
64936;SDS011;51452;47.698;19.050;2023-11-18T13:16:54;1.10;;;0.73;;
64936;SDS011;51452;47.698;19.050;2023-11-18T13:19:26;1.57;;;0.90;;
64936;SDS011;51452;47.698;19.050;2023-11-18T13:22:00;2.87;;;0.80;;
64936;SDS011;51452;47.698;19.050;2023-11-18T13:24:26;0.90;;;0.67;;
64936;SDS011;51452;47.698;19.050;2023-11-18T13:26:56;1.10;;;0.80;;
64936;SDS011;51452;47.698;19.050;2023-11-18T13:29:22;0.73;;;0.60;;
64936;SDS011;51452;47.698;19.050;2023-11-18T13:31:51;0.80;;;0.60;;
64936;SDS011;51452;47.698;19.050;2023-11-18T13:34:20;0.97;;;0.70;;
64936;SDS011;51452;47.698;19.050;2023-11-18T13:36:48;1.30;;;0.67;;
64936;SDS011;51452;47.698;19.050;2023-11-18T13:39:18;1.20;;;0.70;;
64936;SDS011;51452;47.698;19.050;2023-11-18T13:41:44;1.40;;;0.90;;
64936;SDS011;51452;47.698;19.050;2023-11-18T13:44:14;1.10;;;0.80;;
64936;SDS011;51452;47.698;19.050;2023-11-18T13:47:00;1.37;;;0.70;;
64936;SDS011;51452;47.698;19.050;2023-11-18T13:49:27;1.53;;;0.90;;
64936;SDS011;51452;47.698;19.050;2023-11-18T13:51:54;2.97;;;0.80;;
64936;SDS011;51452;47.698;19.050;2023-11-18T13:54:20;0.80;;;0.67;;
64936;SDS011;51452;47.698;19.050;2023-11-18T13:56:50;2.43;;;0.90;;
64936;SDS011;51452;47.698;19.050;2023-11-18T13:59:16;1.33;;;0.77;;
64936;SDS011;51452;47.698;19.050;2023-11-18T14:01:42;1.20;;;0.83;;
64936;SDS011;51452;47.698;19.050;2023-11-18T14:04:08;1.07;;;0.77;;
64936;SDS011;51452;47.698;19.050;2023-11-18T14:06:35;1.83;;;0.77;;
64936;SDS011;51452;47.698;19.050;2023-11-18T14:09:00;1.20;;;0.73;;
64936;SDS011;51452;47.698;19.050;2023-11-18T14:11:26;1.40;;;0.70;;
64936;SDS011;51452;47.698;19.050;2023-11-18T14:13:51;1.90;;;0.80;;
64936;SDS011;51452;47.698;19.050;2023-11-18T14:16:18;0.93;;;0.70;;
64936;SDS011;51452;47.698;19.050;2023-11-18T14:18:46;1.73;;;0.93;;
64936;SDS011;51452;47.698;19.050;2023-11-18T14:21:13;1.00;;;0.80;;
64936;SDS011;51452;47.698;19.050;2023-11-18T14:23:39;1.63;;;0.90;;
64936;SDS011;51452;47.698;19.050;2023-11-18T14:26:05;2.30;;;1.30;;
64936;SDS011;51452;47.698;19.050;2023-11-18T14:28:32;1.57;;;0.97;;
64936;SDS011;51452;47.698;19.050;2023-11-18T14:31:02;1.60;;;1.00;;
64936;SDS011;51452;47.698;19.050;2023-11-18T14:33:30;1.20;;;0.80;;
64936;SDS011;51452;47.698;19.050;2023-11-18T14:35:58;1.57;;;1.10;;
64936;SDS011;51452;47.698;19.050;2023-11-18T14:38:26;1.73;;;1.03;;
64936;SDS011;51452;47.698;19.050;2023-11-18T14:40:52;1.70;;;1.00;;
64936;SDS011;51452;47.698;19.050;2023-11-18T14:43:18;1.90;;;1.27;;
64936;SDS011;51452;47.698;19.050;2023-11-18T14:45:47;2.57;;;1.17;;
64936;SDS011;51452;47.698;19.050;2023-11-18T14:48:13;2.37;;;1.20;;
64936;SDS011;51452;47.698;19.050;2023-11-18T14:50:39;2.00;;;1.20;;
64936;SDS011;51452;47.698;19.050;2023-11-18T14:53:04;2.37;;;1.20;;
64936;SDS011;51452;47.698;19.050;2023-11-18T14:55:31;2.00;;;1.30;;
64936;SDS011;51452;47.698;19.050;2023-11-18T14:57:58;2.70;;;1.40;;
64936;SDS011;51452;47.698;19.050;2023-11-18T15:00:23;2.03;;;1.37;;
64936;SDS011;51452;47.698;19.050;2023-11-18T15:02:57;2.60;;;1.40;;
64936;SDS011;51452;47.698;19.050;2023-11-18T15:05:23;1.80;;;1.30;;
64936;SDS011;51452;47.698;19.050;2023-11-18T15:10:20;2.97;;;1.80;;